sensor_id;sensor_type;location;lat;lon;timestamp;temperature;humidity
6930;DHT22;3504;52.616;13.238;2024-02-15T00:01:23;9.35;91.84
6930;DHT22;3504;52.616;13.238;2024-02-15T00:06:23;9.41;91.83
6930;DHT22;3504;52.616;13.238;2024-02-15T00:11:24;9.41;91.78
6930;DHT22;3504;52.616;13.238;2024-02-15T00:16:24;9.43;91.79
6930;DHT22;3504;52.616;13.238;2024-02-15T00:21:25;9.43;91.65
6930;DHT22;3504;52.616;13.238;2024-02-15T00:26:25;9.43;91.63
6930;DHT22;3504;52.616;13.238;2024-02-15T00:31:26;9.43;91.71
6930;DHT22;3504;52.616;13.238;2024-02-15T00:36:27;9.43;91.72
6930;DHT22;3504;52.616;13.238;2024-02-15T00:41:28;9.45;91.76
6930;DHT22;3504;52.616;13.238;2024-02-15T00:46:28;9.45;91.78
6930;DHT22;3504;52.616;13.238;2024-02-15T00:51:29;9.42;91.80
6930;DHT22;3504;52.616;13.238;2024-02-15T00:56:30;9.45;91.89
6930;DHT22;3504;52.616;13.238;2024-02-15T01:01:33;9.48;91.89
6930;DHT22;3504;52.616;13.238;2024-02-15T01:06:33;9.48;91.89
6930;DHT22;3504;52.616;13.238;2024-02-15T01:11:34;9.48;91.83
6930;DHT22;3504;52.616;13.238;2024-02-15T01:16:37;9.46;91.84
6930;DHT22;3504;52.616;13.238;2024-02-15T01:21:37;9.48;92.05
6930;DHT22;3504;52.616;13.238;2024-02-15T01:26:38;9.49;92.08
6930;DHT22;3504;52.616;13.238;2024-02-15T01:31:38;9.48;92.11
6930;DHT22;3504;52.616;13.238;2024-02-15T01:36:39;9.49;92.18
6930;DHT22;3504;52.616;13.238;2024-02-15T01:41:39;9.49;92.15
6930;DHT22;3504;52.616;13.238;2024-02-15T01:46:40;9.49;92.22
6930;DHT22;3504;52.616;13.238;2024-02-15T01:51:42;9.51;92.25
6930;DHT22;3504;52.616;13.238;2024-02-15T01:56:43;9.49;92.40
6930;DHT22;3504;52.616;13.238;2024-02-15T02:01:45;9.51;92.37
6930;DHT22;3504;52.616;13.238;2024-02-15T02:06:45;9.53;92.46
6930;DHT22;3504;52.616;13.238;2024-02-15T02:11:46;9.53;92.44
6930;DHT22;3504;52.616;13.238;2024-02-15T02:16:47;9.53;92.40
6930;DHT22;3504;52.616;13.238;2024-02-15T02:21:47;9.53;92.44
6930;DHT22;3504;52.616;13.238;2024-02-15T02:26:51;9.55;92.46
6930;DHT22;3504;52.616;13.238;2024-02-15T02:31:52;9.58;92.44
6930;DHT22;3504;52.616;13.238;2024-02-15T02:36:53;9.61;92.42
6930;DHT22;3504;52.616;13.238;2024-02-15T02:41:53;9.62;92.42
6930;DHT22;3504;52.616;13.238;2024-02-15T02:46:54;9.62;92.40
6930;DHT22;3504;52.616;13.238;2024-02-15T02:51:54;9.65;92.48
6930;DHT22;3504;52.616;13.238;2024-02-15T02:56:55;9.66;92.37
6930;DHT22;3504;52.616;13.238;2024-02-15T03:01:55;9.69;92.32
6930;DHT22;3504;52.616;13.238;2024-02-15T03:06:56;9.70;92.39
6930;DHT22;3504;52.616;13.238;2024-02-15T03:11:58;9.72;92.37
6930;DHT22;3504;52.616;13.238;2024-02-15T03:16:58;9.72;92.40
6930;DHT22;3504;52.616;13.238;2024-02-15T03:21:59;9.72;92.41
6930;DHT22;3504;52.616;13.238;2024-02-15T03:27:00;9.73;92.42
6930;DHT22;3504;52.616;13.238;2024-02-15T03:32:02;9.74;92.40
6930;DHT22;3504;52.616;13.238;2024-02-15T03:37:04;9.74;92.46
6930;DHT22;3504;52.616;13.238;2024-02-15T03:42:04;9.74;92.42
6930;DHT22;3504;52.616;13.238;2024-02-15T03:47:06;9.74;92.42
6930;DHT22;3504;52.616;13.238;2024-02-15T03:52:08;9.78;92.41
6930;DHT22;3504;52.616;13.238;2024-02-15T03:57:10;9.76;92.44
6930;DHT22;3504;52.616;13.238;2024-02-15T04:02:12;9.79;92.44
6930;DHT22;3504;52.616;13.238;2024-02-15T04:07:15;9.79;92.40
6930;DHT22;3504;52.616;13.238;2024-02-15T04:12:16;9.82;92.61
6930;DHT22;3504;52.616;13.238;2024-02-15T04:17:17;9.83;92.69
6930;DHT22;3504;52.616;13.238;2024-02-15T04:22:17;9.86;92.68
6930;DHT22;3504;52.616;13.238;2024-02-15T04:27:18;9.85;92.62
6930;DHT22;3504;52.616;13.238;2024-02-15T04:32:21;9.87;92.54
6930;DHT22;3504;52.616;13.238;2024-02-15T04:37:21;9.87;92.44
6930;DHT22;3504;52.616;13.238;2024-02-15T04:42:23;9.87;92.54
6930;DHT22;3504;52.616;13.238;2024-02-15T04:47:27;9.89;92.53
6930;DHT22;3504;52.616;13.238;2024-02-15T04:52:27;9.86;92.45
6930;DHT22;3504;52.616;13.238;2024-02-15T04:57:28;9.89;92.47
6930;DHT22;3504;52.616;13.238;2024-02-15T05:02:28;9.90;92.44
6930;DHT22;3504;52.616;13.238;2024-02-15T05:07:29;9.89;92.47
6930;DHT22;3504;52.616;13.238;2024-02-15T05:12:29;9.90;92.55
6930;DHT22;3504;52.616;13.238;2024-02-15T05:17:31;9.92;92.55
6930;DHT22;3504;52.616;13.238;2024-02-15T05:22:31;9.90;92.54
6930;DHT22;3504;52.616;13.238;2024-02-15T05:27:33;9.92;92.59
6930;DHT22;3504;52.616;13.238;2024-02-15T05:32:34;9.92;92.60
6930;DHT22;3504;52.616;13.238;2024-02-15T05:37:41;9.94;92.64
6930;DHT22;3504;52.616;13.238;2024-02-15T05:42:42;9.97;92.65
6930;DHT22;3504;52.616;13.238;2024-02-15T05:47:45;10.00;92.61
6930;DHT22;3504;52.616;13.238;2024-02-15T05:52:47;9.99;92.57
6930;DHT22;3504;52.616;13.238;2024-02-15T05:57:47;10.02;92.47
6930;DHT22;3504;52.616;13.238;2024-02-15T06:02:48;10.02;92.49
6930;DHT22;3504;52.616;13.238;2024-02-15T06:07:49;10.00;92.50
6930;DHT22;3504;52.616;13.238;2024-02-15T06:12:50;10.03;92.61
6930;DHT22;3504;52.616;13.238;2024-02-15T06:17:50;10.03;92.61
6930;DHT22;3504;52.616;13.238;2024-02-15T06:22:51;10.04;92.50
6930;DHT22;3504;52.616;13.238;2024-02-15T06:27:52;10.07;92.52
6930;DHT22;3504;52.616;13.238;2024-02-15T06:32:59;10.07;92.55
6930;DHT22;3504;52.616;13.238;2024-02-15T06:38:18;10.09;92.49
6930;DHT22;3504;52.616;13.238;2024-02-15T06:43:37;10.13;92.54
6930;DHT22;3504;52.616;13.238;2024-02-15T06:48:42;10.16;92.53
6930;DHT22;3504;52.616;13.238;2024-02-15T06:53:44;10.17;92.43
6930;DHT22;3504;52.616;13.238;2024-02-15T06:58:45;10.20;92.51
6930;DHT22;3504;52.616;13.238;2024-02-15T07:03:45;10.24;92.44
6930;DHT22;3504;52.616;13.238;2024-02-15T07:08:46;10.27;92.49
6930;DHT22;3504;52.616;13.238;2024-02-15T07:13:48;10.28;92.41
6930;DHT22;3504;52.616;13.238;2024-02-15T07:18:48;10.28;92.44
6930;DHT22;3504;52.616;13.238;2024-02-15T07:23:49;10.28;92.46
6930;DHT22;3504;52.616;13.238;2024-02-15T07:28:52;10.33;92.53
6930;DHT22;3504;52.616;13.238;2024-02-15T07:33:53;10.35;92.54
6930;DHT22;3504;52.616;13.238;2024-02-15T07:38:54;10.42;92.56
6930;DHT22;3504;52.616;13.238;2024-02-15T07:44:01;10.44;92.38
6930;DHT22;3504;52.616;13.238;2024-02-15T07:49:04;10.48;92.43
6930;DHT22;3504;52.616;13.238;2024-02-15T07:54:06;10.57;92.33
6930;DHT22;3504;52.616;13.238;2024-02-15T07:59:08;10.60;92.34
6930;DHT22;3504;52.616;13.238;2024-02-15T08:04:09;10.65;92.21
6930;DHT22;3504;52.616;13.238;2024-02-15T08:09:09;10.69;92.27
6930;DHT22;3504;52.616;13.238;2024-02-15T08:14:14;10.75;92.27
6930;DHT22;3504;52.616;13.238;2024-02-15T08:19:14;10.79;92.13
6930;DHT22;3504;52.616;13.238;2024-02-15T08:24:15;10.85;92.18
6930;DHT22;3504;52.616;13.238;2024-02-15T08:29:15;10.89;92.04
6930;DHT22;3504;52.616;13.238;2024-02-15T08:34:16;10.91;91.87
6930;DHT22;3504;52.616;13.238;2024-02-15T08:39:18;10.93;91.72
6930;DHT22;3504;52.616;13.238;2024-02-15T08:44:19;10.91;91.81
6930;DHT22;3504;52.616;13.238;2024-02-15T08:49:21;10.99;91.96
6930;DHT22;3504;52.616;13.238;2024-02-15T08:54:22;11.09;91.94
6930;DHT22;3504;52.616;13.238;2024-02-15T08:59:23;11.19;91.63
6930;DHT22;3504;52.616;13.238;2024-02-15T09:04:25;11.30;91.68
6930;DHT22;3504;52.616;13.238;2024-02-15T09:09:26;11.43;91.62
6930;DHT22;3504;52.616;13.238;2024-02-15T09:14:27;11.53;91.35
6930;DHT22;3504;52.616;13.238;2024-02-15T09:19:27;11.56;90.98
6930;DHT22;3504;52.616;13.238;2024-02-15T09:24:28;11.58;90.93
6930;DHT22;3504;52.616;13.238;2024-02-15T09:29:29;11.53;90.75
6930;DHT22;3504;52.616;13.238;2024-02-15T09:34:35;11.53;90.70
6930;DHT22;3504;52.616;13.238;2024-02-15T09:39:37;11.51;90.95
6930;DHT22;3504;52.616;13.238;2024-02-15T09:44:38;11.50;90.78
6930;DHT22;3504;52.616;13.238;2024-02-15T09:49:40;11.53;90.80
6930;DHT22;3504;52.616;13.238;2024-02-15T09:54:42;11.66;91.00
6930;DHT22;3504;52.616;13.238;2024-02-15T09:59:46;11.67;90.71
6930;DHT22;3504;52.616;13.238;2024-02-15T10:04:47;11.74;90.85
6930;DHT22;3504;52.616;13.238;2024-02-15T10:09:47;11.81;90.65
6930;DHT22;3504;52.616;13.238;2024-02-15T10:14:49;11.88;90.68
6930;DHT22;3504;52.616;13.238;2024-02-15T10:20:03;11.91;90.51
6930;DHT22;3504;52.616;13.238;2024-02-15T10:25:12;11.97;90.48
6930;DHT22;3504;52.616;13.238;2024-02-15T10:30:20;11.98;90.52
6930;DHT22;3504;52.616;13.238;2024-02-15T10:35:23;12.08;90.53
6930;DHT22;3504;52.616;13.238;2024-02-15T10:40:24;12.15;90.53
6930;DHT22;3504;52.616;13.238;2024-02-15T10:45:25;12.28;90.53
6930;DHT22;3504;52.616;13.238;2024-02-15T10:50:26;12.50;90.64
6930;DHT22;3504;52.616;13.238;2024-02-15T10:55:40;12.67;90.21
6930;DHT22;3504;52.616;13.238;2024-02-15T11:00:41;12.83;89.95
6930;DHT22;3504;52.616;13.238;2024-02-15T11:05:44;12.94;89.46
6930;DHT22;3504;52.616;13.238;2024-02-15T11:10:46;13.03;88.86
6930;DHT22;3504;52.616;13.238;2024-02-15T11:15:47;13.07;88.70
6930;DHT22;3504;52.616;13.238;2024-02-15T11:20:53;13.06;88.67
6930;DHT22;3504;52.616;13.238;2024-02-15T11:25:56;13.06;88.33
6930;DHT22;3504;52.616;13.238;2024-02-15T11:30:59;13.08;88.31
6930;DHT22;3504;52.616;13.238;2024-02-15T11:36:08;13.10;88.21
6930;DHT22;3504;52.616;13.238;2024-02-15T11:41:10;13.00;88.24
6930;DHT22;3504;52.616;13.238;2024-02-15T11:51:35;12.84;88.38
6930;DHT22;3504;52.616;13.238;2024-02-15T11:56:55;12.80;88.57
6930;DHT22;3504;52.616;13.238;2024-02-15T12:02:07;12.79;88.76
6930;DHT22;3504;52.616;13.238;2024-02-15T12:07:27;12.77;88.80
6930;DHT22;3504;52.616;13.238;2024-02-15T12:12:54;12.79;88.70
6930;DHT22;3504;52.616;13.238;2024-02-15T12:18:17;12.77;88.74
6930;DHT22;3504;52.616;13.238;2024-02-15T12:23:38;12.81;88.71
6930;DHT22;3504;52.616;13.238;2024-02-15T12:28:42;12.81;88.51
6930;DHT22;3504;52.616;13.238;2024-02-15T12:33:43;12.87;88.57
6930;DHT22;3504;52.616;13.238;2024-02-15T12:38:45;12.94;88.19
6930;DHT22;3504;52.616;13.238;2024-02-15T12:43:45;13.00;88.25
6930;DHT22;3504;52.616;13.238;2024-02-15T12:48:47;13.12;88.05
6930;DHT22;3504;52.616;13.238;2024-02-15T12:53:48;13.18;87.64
6930;DHT22;3504;52.616;13.238;2024-02-15T12:58:48;13.20;87.39
6930;DHT22;3504;52.616;13.238;2024-02-15T13:03:49;13.20;87.19
6930;DHT22;3504;52.616;13.238;2024-02-15T13:08:49;13.28;86.92
6930;DHT22;3504;52.616;13.238;2024-02-15T13:13:50;13.34;86.71
6930;DHT22;3504;52.616;13.238;2024-02-15T13:18:50;13.38;86.68
6930;DHT22;3504;52.616;13.238;2024-02-15T13:23:52;13.44;86.47
6930;DHT22;3504;52.616;13.238;2024-02-15T13:28:52;13.49;86.66
6930;DHT22;3504;52.616;13.238;2024-02-15T13:33:53;13.51;86.71
6930;DHT22;3504;52.616;13.238;2024-02-15T13:38:53;13.56;86.92
6930;DHT22;3504;52.616;13.238;2024-02-15T13:43:54;13.61;86.91
6930;DHT22;3504;52.616;13.238;2024-02-15T13:48:54;13.62;86.99
6930;DHT22;3504;52.616;13.238;2024-02-15T13:53:55;13.61;86.46
6930;DHT22;3504;52.616;13.238;2024-02-15T13:58:56;13.66;86.67
6930;DHT22;3504;52.616;13.238;2024-02-15T14:03:57;13.72;86.41
6930;DHT22;3504;52.616;13.238;2024-02-15T14:08:57;13.71;86.02
6930;DHT22;3504;52.616;13.238;2024-02-15T14:13:58;13.72;85.84
6930;DHT22;3504;52.616;13.238;2024-02-15T14:18:59;13.59;85.62
6930;DHT22;3504;52.616;13.238;2024-02-15T14:23:59;13.52;85.58
6930;DHT22;3504;52.616;13.238;2024-02-15T14:29:00;13.46;85.63
6930;DHT22;3504;52.616;13.238;2024-02-15T14:34:03;13.41;85.57
6930;DHT22;3504;52.616;13.238;2024-02-15T14:39:04;13.41;85.81
6930;DHT22;3504;52.616;13.238;2024-02-15T14:44:05;13.38;85.66
6930;DHT22;3504;52.616;13.238;2024-02-15T14:49:05;13.34;85.82
6930;DHT22;3504;52.616;13.238;2024-02-15T14:54:06;13.38;85.92
6930;DHT22;3504;52.616;13.238;2024-02-15T14:59:07;13.32;85.86
6930;DHT22;3504;52.616;13.238;2024-02-15T15:04:07;13.32;85.78
6930;DHT22;3504;52.616;13.238;2024-02-15T15:09:10;13.32;86.01
6930;DHT22;3504;52.616;13.238;2024-02-15T15:14:29;13.28;86.04
6930;DHT22;3504;52.616;13.238;2024-02-15T15:19:30;13.24;85.98
6930;DHT22;3504;52.616;13.238;2024-02-15T15:24:31;13.20;86.09
6930;DHT22;3504;52.616;13.238;2024-02-15T15:29:34;13.14;86.15
6930;DHT22;3504;52.616;13.238;2024-02-15T15:34:35;13.08;86.23
6930;DHT22;3504;52.616;13.238;2024-02-15T15:39:36;13.10;86.23
6930;DHT22;3504;52.616;13.238;2024-02-15T15:44:37;13.04;86.26
6930;DHT22;3504;52.616;13.238;2024-02-15T15:49:37;13.01;86.43
6930;DHT22;3504;52.616;13.238;2024-02-15T15:54:42;13.00;86.48
6930;DHT22;3504;52.616;13.238;2024-02-15T15:59:42;12.96;86.54
6930;DHT22;3504;52.616;13.238;2024-02-15T16:04:47;12.93;86.63
6930;DHT22;3504;52.616;13.238;2024-02-15T16:09:48;12.88;86.88
6930;DHT22;3504;52.616;13.238;2024-02-15T16:14:49;12.87;87.06
6930;DHT22;3504;52.616;13.238;2024-02-15T16:19:50;12.81;87.22
6930;DHT22;3504;52.616;13.238;2024-02-15T16:24:50;12.79;87.33
6930;DHT22;3504;52.616;13.238;2024-02-15T16:29:51;12.76;87.33
6930;DHT22;3504;52.616;13.238;2024-02-15T16:34:51;12.73;87.49
6930;DHT22;3504;52.616;13.238;2024-02-15T16:39:52;12.69;87.69
6930;DHT22;3504;52.616;13.238;2024-02-15T16:44:53;12.67;87.74
6930;DHT22;3504;52.616;13.238;2024-02-15T16:49:54;12.70;87.76
6930;DHT22;3504;52.616;13.238;2024-02-15T16:54:55;12.67;87.81
6930;DHT22;3504;52.616;13.238;2024-02-15T16:59:56;12.67;87.85
6930;DHT22;3504;52.616;13.238;2024-02-15T17:04:57;12.66;87.84
6930;DHT22;3504;52.616;13.238;2024-02-15T17:09:57;12.66;87.82
6930;DHT22;3504;52.616;13.238;2024-02-15T17:14:58;12.67;87.86
6930;DHT22;3504;52.616;13.238;2024-02-15T17:19:59;12.67;87.80
6930;DHT22;3504;52.616;13.238;2024-02-15T17:24:59;12.67;87.81
6930;DHT22;3504;52.616;13.238;2024-02-15T17:30:11;12.66;87.80
6930;DHT22;3504;52.616;13.238;2024-02-15T17:35:12;12.64;87.84
6930;DHT22;3504;52.616;13.238;2024-02-15T17:40:17;12.62;87.85
6930;DHT22;3504;52.616;13.238;2024-02-15T17:45:18;12.63;87.87
6930;DHT22;3504;52.616;13.238;2024-02-15T17:50:18;12.66;87.82
6930;DHT22;3504;52.616;13.238;2024-02-15T17:55:22;12.64;87.69
6930;DHT22;3504;52.616;13.238;2024-02-15T18:00:23;12.66;87.74
6930;DHT22;3504;52.616;13.238;2024-02-15T18:05:23;12.62;87.62
6930;DHT22;3504;52.616;13.238;2024-02-15T18:10:24;12.63;87.70
6930;DHT22;3504;52.616;13.238;2024-02-15T18:15:24;12.62;87.69
6930;DHT22;3504;52.616;13.238;2024-02-15T18:20:29;12.62;87.71
6930;DHT22;3504;52.616;13.238;2024-02-15T18:25:29;12.62;87.65
6930;DHT22;3504;52.616;13.238;2024-02-15T18:30:30;12.60;87.68
6930;DHT22;3504;52.616;13.238;2024-02-15T18:35:33;12.62;87.66
6930;DHT22;3504;52.616;13.238;2024-02-15T18:40:38;12.59;87.63
6930;DHT22;3504;52.616;13.238;2024-02-15T18:45:38;12.59;87.62
6930;DHT22;3504;52.616;13.238;2024-02-15T18:50:43;12.57;87.70
6930;DHT22;3504;52.616;13.238;2024-02-15T18:55:44;12.53;87.72
6930;DHT22;3504;52.616;13.238;2024-02-15T19:00:47;12.55;87.73
6930;DHT22;3504;52.616;13.238;2024-02-15T19:05:48;12.53;87.76
6930;DHT22;3504;52.616;13.238;2024-02-15T19:10:48;12.53;87.76
6930;DHT22;3504;52.616;13.238;2024-02-15T19:15:49;12.55;87.73
6930;DHT22;3504;52.616;13.238;2024-02-15T19:20:54;12.52;87.69
6930;DHT22;3504;52.616;13.238;2024-02-15T19:25:55;12.53;87.65
6930;DHT22;3504;52.616;13.238;2024-02-15T19:30:56;12.53;87.65
6930;DHT22;3504;52.616;13.238;2024-02-15T19:35:56;12.52;87.62
6930;DHT22;3504;52.616;13.238;2024-02-15T19:40:57;12.50;87.55
6930;DHT22;3504;52.616;13.238;2024-02-15T19:45:59;12.49;87.56
6930;DHT22;3504;52.616;13.238;2024-02-15T19:51:01;12.50;87.49
6930;DHT22;3504;52.616;13.238;2024-02-15T19:56:02;12.49;87.49
6930;DHT22;3504;52.616;13.238;2024-02-15T20:01:03;12.53;87.43
6930;DHT22;3504;52.616;13.238;2024-02-15T20:06:04;12.52;87.43
6930;DHT22;3504;52.616;13.238;2024-02-15T20:11:05;12.52;87.34
6930;DHT22;3504;52.616;13.238;2024-02-15T20:16:06;12.52;87.32
6930;DHT22;3504;52.616;13.238;2024-02-15T20:21:09;12.52;87.22
6930;DHT22;3504;52.616;13.238;2024-02-15T20:26:12;12.53;87.12
6930;DHT22;3504;52.616;13.238;2024-02-15T20:31:13;12.53;87.02
6930;DHT22;3504;52.616;13.238;2024-02-15T20:36:13;12.56;86.94
6930;DHT22;3504;52.616;13.238;2024-02-15T20:41:14;12.56;86.83
6930;DHT22;3504;52.616;13.238;2024-02-15T20:46:28;12.56;86.75
6930;DHT22;3504;52.616;13.238;2024-02-15T20:51:28;12.57;86.72
6930;DHT22;3504;52.616;13.238;2024-02-15T20:56:29;12.56;86.64
6930;DHT22;3504;52.616;13.238;2024-02-15T21:01:30;12.57;86.50
6930;DHT22;3504;52.616;13.238;2024-02-15T21:06:31;12.55;86.49
6930;DHT22;3504;52.616;13.238;2024-02-15T21:11:32;12.57;86.37
6930;DHT22;3504;52.616;13.238;2024-02-15T21:16:33;12.56;86.32
6930;DHT22;3504;52.616;13.238;2024-02-15T21:21:35;12.56;86.22
6930;DHT22;3504;52.616;13.238;2024-02-15T21:26:41;12.56;86.19
6930;DHT22;3504;52.616;13.238;2024-02-15T21:31:42;12.55;86.10
6930;DHT22;3504;52.616;13.238;2024-02-15T21:36:43;12.56;85.98
6930;DHT22;3504;52.616;13.238;2024-02-15T21:41:44;12.56;85.89
6930;DHT22;3504;52.616;13.238;2024-02-15T21:46:46;12.57;85.81
6930;DHT22;3504;52.616;13.238;2024-02-15T21:51:47;12.56;85.72
6930;DHT22;3504;52.616;13.238;2024-02-15T21:56:47;12.56;85.64
6930;DHT22;3504;52.616;13.238;2024-02-15T22:01:47;12.57;85.56
6930;DHT22;3504;52.616;13.238;2024-02-15T22:06:48;12.55;85.56
6930;DHT22;3504;52.616;13.238;2024-02-15T22:11:48;12.53;85.61
6930;DHT22;3504;52.616;13.238;2024-02-15T22:16:49;12.55;85.56
6930;DHT22;3504;52.616;13.238;2024-02-15T22:21:49;12.49;85.46
6930;DHT22;3504;52.616;13.238;2024-02-15T22:26:54;12.52;85.52
6930;DHT22;3504;52.616;13.238;2024-02-15T22:31:56;12.46;85.33
6930;DHT22;3504;52.616;13.238;2024-02-15T22:36:56;12.45;85.28
6930;DHT22;3504;52.616;13.238;2024-02-15T22:41:57;12.36;85.16
6930;DHT22;3504;52.616;13.238;2024-02-15T22:46:58;12.28;85.22
6930;DHT22;3504;52.616;13.238;2024-02-15T22:51:58;12.18;85.44
6930;DHT22;3504;52.616;13.238;2024-02-15T22:57:01;12.11;85.52
6930;DHT22;3504;52.616;13.238;2024-02-15T23:02:01;12.02;85.66
6930;DHT22;3504;52.616;13.238;2024-02-15T23:07:02;11.91;85.74
6930;DHT22;3504;52.616;13.238;2024-02-15T23:12:08;11.85;85.91
6930;DHT22;3504;52.616;13.238;2024-02-15T23:17:09;11.79;85.81
6930;DHT22;3504;52.616;13.238;2024-02-15T23:22:09;11.73;85.83
6930;DHT22;3504;52.616;13.238;2024-02-15T23:27:10;11.63;86.11
6930;DHT22;3504;52.616;13.238;2024-02-15T23:32:11;11.54;86.19
6930;DHT22;3504;52.616;13.238;2024-02-15T23:37:11;11.50;86.03
6930;DHT22;3504;52.616;13.238;2024-02-15T23:42:31;11.46;86.23
6930;DHT22;3504;52.616;13.238;2024-02-15T23:47:31;11.40;86.15
6930;DHT22;3504;52.616;13.238;2024-02-15T23:52:32;11.31;86.01
6930;DHT22;3504;52.616;13.238;2024-02-15T23:57:35;11.30;86.12
